sensor_id;sensor_type;location;lat;lon;timestamp;temperature;humidity
17529;DHT22;8882;53.192;8.184;2022-08-19T04:32:17;15.30;99.90
17529;DHT22;8882;53.192;8.184;2022-08-19T04:34:43;15.30;99.90
17529;DHT22;8882;53.192;8.184;2022-08-19T04:37:09;15.30;99.90
17529;DHT22;8882;53.192;8.184;2022-08-19T04:39:38;15.30;99.90
17529;DHT22;8882;53.192;8.184;2022-08-19T04:42:22;15.30;99.90
17529;DHT22;8882;53.192;8.184;2022-08-19T04:45:09;15.30;99.90
17529;DHT22;8882;53.192;8.184;2022-08-19T04:47:42;15.40;99.90
17529;DHT22;8882;53.192;8.184;2022-08-19T04:50:09;15.40;99.90
17529;DHT22;8882;53.192;8.184;2022-08-19T04:52:37;15.50;99.90
17529;DHT22;8882;53.192;8.184;2022-08-19T04:55:04;15.50;99.90
17529;DHT22;8882;53.192;8.184;2022-08-19T04:57:31;15.50;99.90
17529;DHT22;8882;53.192;8.184;2022-08-19T04:59:56;15.50;99.90
17529;DHT22;8882;53.192;8.184;2022-08-19T05:02:22;15.50;99.90
17529;DHT22;8882;53.192;8.184;2022-08-19T05:04:57;15.50;99.90
17529;DHT22;8882;53.192;8.184;2022-08-19T05:07:23;15.50;99.90
17529;DHT22;8882;53.192;8.184;2022-08-19T05:09:49;15.50;99.90
17529;DHT22;8882;53.192;8.184;2022-08-19T05:12:15;15.50;99.90
17529;DHT22;8882;53.192;8.184;2022-08-19T05:14:40;15.50;99.90
17529;DHT22;8882;53.192;8.184;2022-08-19T05:17:06;15.70;99.90
17529;DHT22;8882;53.192;8.184;2022-08-19T05:19:31;15.80;99.90
17529;DHT22;8882;53.192;8.184;2022-08-19T05:22:35;15.90;99.90
17529;DHT22;8882;53.192;8.184;2022-08-19T05:25:07;15.90;99.90
17529;DHT22;8882;53.192;8.184;2022-08-19T05:27:33;15.90;99.90
17529;DHT22;8882;53.192;8.184;2022-08-19T05:29:59;15.90;99.90
17529;DHT22;8882;53.192;8.184;2022-08-19T05:32:25;15.80;99.90
17529;DHT22;8882;53.192;8.184;2022-08-19T05:34:51;15.90;99.90
17529;DHT22;8882;53.192;8.184;2022-08-19T05:37:16;15.90;99.90
17529;DHT22;8882;53.192;8.184;2022-08-19T05:39:42;15.90;99.90
17529;DHT22;8882;53.192;8.184;2022-08-19T05:42:10;15.90;99.90
17529;DHT22;8882;53.192;8.184;2022-08-19T05:44:38;15.90;99.90
17529;DHT22;8882;53.192;8.184;2022-08-19T05:47:06;16.00;99.90
17529;DHT22;8882;53.192;8.184;2022-08-19T05:49:33;16.10;99.90
17529;DHT22;8882;53.192;8.184;2022-08-19T05:52:02;16.10;99.90
17529;DHT22;8882;53.192;8.184;2022-08-19T05:54:28;16.30;99.90
17529;DHT22;8882;53.192;8.184;2022-08-19T05:56:55;16.40;99.90
17529;DHT22;8882;53.192;8.184;2022-08-19T05:59:21;16.50;99.90
17529;DHT22;8882;53.192;8.184;2022-08-19T06:01:48;16.70;99.90
17529;DHT22;8882;53.192;8.184;2022-08-19T06:04:18;16.80;99.90
17529;DHT22;8882;53.192;8.184;2022-08-19T06:06:45;16.90;99.90
17529;DHT22;8882;53.192;8.184;2022-08-19T06:09:10;17.00;99.90
17529;DHT22;8882;53.192;8.184;2022-08-19T06:11:44;17.10;99.90
17529;DHT22;8882;53.192;8.184;2022-08-19T06:14:17;17.30;99.90
17529;DHT22;8882;53.192;8.184;2022-08-19T06:16:43;17.50;99.90
17529;DHT22;8882;53.192;8.184;2022-08-19T06:19:12;17.60;99.90
17529;DHT22;8882;53.192;8.184;2022-08-19T06:21:40;17.90;99.90
17529;DHT22;8882;53.192;8.184;2022-08-19T06:24:08;18.10;99.90
17529;DHT22;8882;53.192;8.184;2022-08-19T06:26:35;18.20;99.90
17529;DHT22;8882;53.192;8.184;2022-08-19T06:29:03;18.40;99.90
17529;DHT22;8882;53.192;8.184;2022-08-19T06:31:29;18.60;99.90
17529;DHT22;8882;53.192;8.184;2022-08-19T06:33:56;18.70;99.90
17529;DHT22;8882;53.192;8.184;2022-08-19T06:36:26;18.80;99.90
17529;DHT22;8882;53.192;8.184;2022-08-19T06:38:57;18.90;99.90
17529;DHT22;8882;53.192;8.184;2022-08-19T06:41:23;19.10;99.90
17529;DHT22;8882;53.192;8.184;2022-08-19T06:43:49;19.10;99.90
17529;DHT22;8882;53.192;8.184;2022-08-19T06:46:16;19.20;99.90
17529;DHT22;8882;53.192;8.184;2022-08-19T06:48:43;19.10;99.90
17529;DHT22;8882;53.192;8.184;2022-08-19T06:51:09;19.20;99.90
17529;DHT22;8882;53.192;8.184;2022-08-19T06:53:35;19.30;99.90
17529;DHT22;8882;53.192;8.184;2022-08-19T06:56:01;19.40;99.90
17529;DHT22;8882;53.192;8.184;2022-08-19T06:58:31;19.50;99.90
17529;DHT22;8882;53.192;8.184;2022-08-19T07:01:01;19.60;99.90
17529;DHT22;8882;53.192;8.184;2022-08-19T07:03:30;19.70;99.90
17529;DHT22;8882;53.192;8.184;2022-08-19T07:05:56;19.60;99.90
17529;DHT22;8882;53.192;8.184;2022-08-19T07:08:22;19.70;99.90
17529;DHT22;8882;53.192;8.184;2022-08-19T07:10:48;19.80;99.90
17529;DHT22;8882;53.192;8.184;2022-08-19T07:13:14;20.00;99.90
17529;DHT22;8882;53.192;8.184;2022-08-19T07:15:39;20.10;99.90
17529;DHT22;8882;53.192;8.184;2022-08-19T07:18:05;20.20;99.90
17529;DHT22;8882;53.192;8.184;2022-08-19T07:20:30;20.20;99.90
17529;DHT22;8882;53.192;8.184;2022-08-19T07:22:58;20.30;99.90
17529;DHT22;8882;53.192;8.184;2022-08-19T07:25:23;20.30;99.90
17529;DHT22;8882;53.192;8.184;2022-08-19T07:27:49;20.50;99.90
17529;DHT22;8882;53.192;8.184;2022-08-19T07:30:15;20.50;99.90
17529;DHT22;8882;53.192;8.184;2022-08-19T07:32:41;20.50;99.90
17529;DHT22;8882;53.192;8.184;2022-08-19T07:35:08;20.60;99.90
17529;DHT22;8882;53.192;8.184;2022-08-19T07:37:35;20.70;99.90
17529;DHT22;8882;53.192;8.184;2022-08-19T07:40:04;20.50;99.90
17529;DHT22;8882;53.192;8.184;2022-08-19T07:42:29;20.60;99.90
17529;DHT22;8882;53.192;8.184;2022-08-19T07:44:55;20.70;99.90
17529;DHT22;8882;53.192;8.184;2022-08-19T07:47:20;20.80;99.90
17529;DHT22;8882;53.192;8.184;2022-08-19T07:49:46;20.90;99.90
17529;DHT22;8882;53.192;8.184;2022-08-19T07:52:12;21.10;99.90
17529;DHT22;8882;53.192;8.184;2022-08-19T07:54:38;21.00;99.90
17529;DHT22;8882;53.192;8.184;2022-08-19T07:57:05;21.10;99.90
17529;DHT22;8882;53.192;8.184;2022-08-19T07:59:30;21.20;99.90
17529;DHT22;8882;53.192;8.184;2022-08-19T08:01:57;21.20;99.90
17529;DHT22;8882;53.192;8.184;2022-08-19T08:04:26;21.30;99.90
17529;DHT22;8882;53.192;8.184;2022-08-19T08:07:10;21.20;99.90
17529;DHT22;8882;53.192;8.184;2022-08-19T08:09:54;21.20;99.90
17529;DHT22;8882;53.192;8.184;2022-08-19T08:12:36;21.20;99.90
17529;DHT22;8882;53.192;8.184;2022-08-19T08:15:11;21.40;99.90
17529;DHT22;8882;53.192;8.184;2022-08-19T08:17:41;21.70;99.90
17529;DHT22;8882;53.192;8.184;2022-08-19T08:20:08;21.90;99.90
17529;DHT22;8882;53.192;8.184;2022-08-19T08:22:34;22.00;99.90
17529;DHT22;8882;53.192;8.184;2022-08-19T08:25:21;22.10;99.90
17529;DHT22;8882;53.192;8.184;2022-08-19T08:27:48;22.20;99.90
17529;DHT22;8882;53.192;8.184;2022-08-19T08:30:18;22.30;99.90
17529;DHT22;8882;53.192;8.184;2022-08-19T08:32:44;22.30;99.90
17529;DHT22;8882;53.192;8.184;2022-08-19T08:35:13;22.40;99.90
17529;DHT22;8882;53.192;8.184;2022-08-19T08:37:39;22.50;99.90
17529;DHT22;8882;53.192;8.184;2022-08-19T08:40:09;22.60;99.90
17529;DHT22;8882;53.192;8.184;2022-08-19T08:42:45;22.80;99.90
17529;DHT22;8882;53.192;8.184;2022-08-19T08:45:16;22.90;99.90
17529;DHT22;8882;53.192;8.184;2022-08-19T08:47:45;23.10;99.90
17529;DHT22;8882;53.192;8.184;2022-08-19T08:50:19;23.40;99.90
17529;DHT22;8882;53.192;8.184;2022-08-19T08:52:51;23.30;99.90
17529;DHT22;8882;53.192;8.184;2022-08-19T08:55:22;23.40;99.90
17529;DHT22;8882;53.192;8.184;2022-08-19T09:00:30;23.20;99.90
17529;DHT22;8882;53.192;8.184;2022-08-19T09:02:57;23.40;99.90
17529;DHT22;8882;53.192;8.184;2022-08-19T09:05:26;23.50;99.90
17529;DHT22;8882;53.192;8.184;2022-08-19T09:08:10;23.70;99.90
17529;DHT22;8882;53.192;8.184;2022-08-19T09:10:46;23.60;99.90
17529;DHT22;8882;53.192;8.184;2022-08-19T09:13:38;23.70;99.90
17529;DHT22;8882;53.192;8.184;2022-08-19T09:16:13;23.60;99.90
17529;DHT22;8882;53.192;8.184;2022-08-19T09:18:45;23.70;99.90
17529;DHT22;8882;53.192;8.184;2022-08-19T09:21:13;24.10;99.90
17529;DHT22;8882;53.192;8.184;2022-08-19T09:23:39;24.30;99.90
17529;DHT22;8882;53.192;8.184;2022-08-19T09:26:15;24.40;99.90
17529;DHT22;8882;53.192;8.184;2022-08-19T09:28:42;24.50;99.90
17529;DHT22;8882;53.192;8.184;2022-08-19T09:31:12;24.50;99.90
17529;DHT22;8882;53.192;8.184;2022-08-19T09:33:38;24.50;99.90
17529;DHT22;8882;53.192;8.184;2022-08-19T09:36:09;24.40;99.90
17529;DHT22;8882;53.192;8.184;2022-08-19T09:38:36;24.70;99.90
17529;DHT22;8882;53.192;8.184;2022-08-19T09:41:05;24.60;99.90
17529;DHT22;8882;53.192;8.184;2022-08-19T09:43:32;24.60;99.90
17529;DHT22;8882;53.192;8.184;2022-08-19T09:45:59;24.70;99.90
17529;DHT22;8882;53.192;8.184;2022-08-19T09:48:25;24.70;99.90
17529;DHT22;8882;53.192;8.184;2022-08-19T09:50:51;24.60;99.90
17529;DHT22;8882;53.192;8.184;2022-08-19T09:53:17;24.60;99.90
17529;DHT22;8882;53.192;8.184;2022-08-19T09:55:43;24.90;99.90
17529;DHT22;8882;53.192;8.184;2022-08-19T09:58:08;25.00;99.90
17529;DHT22;8882;53.192;8.184;2022-08-19T10:00:34;25.10;99.90
17529;DHT22;8882;53.192;8.184;2022-08-19T10:03:01;25.00;99.90
17529;DHT22;8882;53.192;8.184;2022-08-19T10:05:27;25.10;99.90
17529;DHT22;8882;53.192;8.184;2022-08-19T10:08:11;25.20;99.90
17529;DHT22;8882;53.192;8.184;2022-08-19T10:10:37;25.30;99.90
17529;DHT22;8882;53.192;8.184;2022-08-19T10:13:02;25.30;99.90
17529;DHT22;8882;53.192;8.184;2022-08-19T10:15:28;25.40;99.90
17529;DHT22;8882;53.192;8.184;2022-08-19T10:17:53;25.50;99.90
17529;DHT22;8882;53.192;8.184;2022-08-19T10:20:19;25.50;99.90
17529;DHT22;8882;53.192;8.184;2022-08-19T10:22:45;25.30;99.90
17529;DHT22;8882;53.192;8.184;2022-08-19T10:25:10;25.70;99.90
17529;DHT22;8882;53.192;8.184;2022-08-19T10:27:37;25.90;99.90
17529;DHT22;8882;53.192;8.184;2022-08-19T10:30:03;26.00;99.90
17529;DHT22;8882;53.192;8.184;2022-08-19T10:32:30;25.60;99.90
17529;DHT22;8882;53.192;8.184;2022-08-19T10:34:56;25.40;99.90
17529;DHT22;8882;53.192;8.184;2022-08-19T10:37:22;25.60;99.90
17529;DHT22;8882;53.192;8.184;2022-08-19T10:39:47;25.50;99.90
17529;DHT22;8882;53.192;8.184;2022-08-19T10:42:13;25.50;99.90
17529;DHT22;8882;53.192;8.184;2022-08-19T10:44:39;25.60;99.90
17529;DHT22;8882;53.192;8.184;2022-08-19T10:47:05;25.80;99.90
17529;DHT22;8882;53.192;8.184;2022-08-19T10:49:31;26.10;99.90
17529;DHT22;8882;53.192;8.184;2022-08-19T10:51:57;26.00;99.90
17529;DHT22;8882;53.192;8.184;2022-08-19T10:54:41;26.30;99.90
17529;DHT22;8882;53.192;8.184;2022-08-19T10:57:29;26.50;99.90
17529;DHT22;8882;53.192;8.184;2022-08-19T10:59:55;26.40;99.90
17529;DHT22;8882;53.192;8.184;2022-08-19T11:02:21;26.40;99.90
17529;DHT22;8882;53.192;8.184;2022-08-19T11:04:47;26.50;99.90
17529;DHT22;8882;53.192;8.184;2022-08-19T11:07:15;26.60;99.90
17529;DHT22;8882;53.192;8.184;2022-08-19T11:09:41;26.70;99.90
17529;DHT22;8882;53.192;8.184;2022-08-19T11:12:08;27.00;99.90
17529;DHT22;8882;53.192;8.184;2022-08-19T11:14:34;27.40;99.90
17529;DHT22;8882;53.192;8.184;2022-08-19T11:17:01;27.80;99.90
17529;DHT22;8882;53.192;8.184;2022-08-19T11:19:27;27.80;99.90
17529;DHT22;8882;53.192;8.184;2022-08-19T11:21:53;27.80;99.90
17529;DHT22;8882;53.192;8.184;2022-08-19T11:24:22;27.50;99.90
17529;DHT22;8882;53.192;8.184;2022-08-19T11:26:49;27.60;99.90
17529;DHT22;8882;53.192;8.184;2022-08-19T11:29:16;27.60;99.90
17529;DHT22;8882;53.192;8.184;2022-08-19T11:31:46;27.50;99.90
17529;DHT22;8882;53.192;8.184;2022-08-19T11:34:15;27.60;99.90
17529;DHT22;8882;53.192;8.184;2022-08-19T11:36:43;27.40;99.90
17529;DHT22;8882;53.192;8.184;2022-08-19T11:39:11;27.20;99.90
17529;DHT22;8882;53.192;8.184;2022-08-19T11:41:37;27.20;99.90
17529;DHT22;8882;53.192;8.184;2022-08-19T11:44:03;27.40;99.90
17529;DHT22;8882;53.192;8.184;2022-08-19T11:46:30;27.20;99.90
17529;DHT22;8882;53.192;8.184;2022-08-19T11:48:59;27.50;99.90
17529;DHT22;8882;53.192;8.184;2022-08-19T11:51:26;27.70;99.90
17529;DHT22;8882;53.192;8.184;2022-08-19T11:53:53;27.90;99.90
17529;DHT22;8882;53.192;8.184;2022-08-19T11:56:20;27.80;99.90
17529;DHT22;8882;53.192;8.184;2022-08-19T11:58:46;27.90;99.90
17529;DHT22;8882;53.192;8.184;2022-08-19T12:01:13;27.90;99.90
17529;DHT22;8882;53.192;8.184;2022-08-19T12:03:43;27.70;99.90
17529;DHT22;8882;53.192;8.184;2022-08-19T12:06:12;27.90;99.90
17529;DHT22;8882;53.192;8.184;2022-08-19T12:08:42;27.70;99.90
17529;DHT22;8882;53.192;8.184;2022-08-19T12:11:09;27.60;99.90
17529;DHT22;8882;53.192;8.184;2022-08-19T12:13:35;27.60;99.90
17529;DHT22;8882;53.192;8.184;2022-08-19T12:16:10;27.70;99.90
17529;DHT22;8882;53.192;8.184;2022-08-19T12:18:40;27.70;99.90
17529;DHT22;8882;53.192;8.184;2022-08-19T12:21:12;28.40;99.90
17529;DHT22;8882;53.192;8.184;2022-08-19T12:23:42;28.40;99.90
17529;DHT22;8882;53.192;8.184;2022-08-19T12:26:10;28.60;99.90
17529;DHT22;8882;53.192;8.184;2022-08-19T12:28:36;28.80;99.90
17529;DHT22;8882;53.192;8.184;2022-08-19T12:31:02;28.80;99.90
17529;DHT22;8882;53.192;8.184;2022-08-19T12:33:28;28.80;99.90
17529;DHT22;8882;53.192;8.184;2022-08-19T12:35:54;28.80;99.90
17529;DHT22;8882;53.192;8.184;2022-08-19T12:38:20;28.90;99.90
17529;DHT22;8882;53.192;8.184;2022-08-19T12:40:49;29.10;99.90
17529;DHT22;8882;53.192;8.184;2022-08-19T12:43:17;28.90;99.90
17529;DHT22;8882;53.192;8.184;2022-08-19T12:45:42;28.90;99.90
17529;DHT22;8882;53.192;8.184;2022-08-19T12:48:09;28.80;99.90
17529;DHT22;8882;53.192;8.184;2022-08-19T12:50:34;28.70;99.90
17529;DHT22;8882;53.192;8.184;2022-08-19T12:53:00;28.70;99.90
17529;DHT22;8882;53.192;8.184;2022-08-19T12:55:25;28.70;99.90
17529;DHT22;8882;53.192;8.184;2022-08-19T12:57:53;28.70;99.90
17529;DHT22;8882;53.192;8.184;2022-08-19T13:00:20;28.60;99.90
17529;DHT22;8882;53.192;8.184;2022-08-19T13:02:48;28.60;99.90
17529;DHT22;8882;53.192;8.184;2022-08-19T13:05:23;28.70;99.90
17529;DHT22;8882;53.192;8.184;2022-08-19T13:07:50;28.40;99.90
17529;DHT22;8882;53.192;8.184;2022-08-19T13:10:18;28.30;99.90
17529;DHT22;8882;53.192;8.184;2022-08-19T13:12:47;28.10;99.90
17529;DHT22;8882;53.192;8.184;2022-08-19T13:15:15;28.20;99.90
17529;DHT22;8882;53.192;8.184;2022-08-19T13:17:43;28.20;99.90
17529;DHT22;8882;53.192;8.184;2022-08-19T13:20:09;28.30;99.90
17529;DHT22;8882;53.192;8.184;2022-08-19T13:22:35;28.30;99.90
17529;DHT22;8882;53.192;8.184;2022-08-19T13:25:02;28.40;99.90
17529;DHT22;8882;53.192;8.184;2022-08-19T13:27:29;28.50;99.90
17529;DHT22;8882;53.192;8.184;2022-08-19T13:29:54;28.60;99.90
17529;DHT22;8882;53.192;8.184;2022-08-19T13:32:38;28.40;99.90
17529;DHT22;8882;53.192;8.184;2022-08-19T13:35:22;28.50;99.90
17529;DHT22;8882;53.192;8.184;2022-08-19T13:37:48;28.30;99.90
17529;DHT22;8882;53.192;8.184;2022-08-19T13:40:20;28.10;99.90
17529;DHT22;8882;53.192;8.184;2022-08-19T13:42:49;28.00;99.90
17529;DHT22;8882;53.192;8.184;2022-08-19T13:45:18;28.00;99.90
17529;DHT22;8882;53.192;8.184;2022-08-19T13:47:49;28.00;99.90
17529;DHT22;8882;53.192;8.184;2022-08-19T13:50:18;28.10;99.90
17529;DHT22;8882;53.192;8.184;2022-08-19T13:52:44;28.10;99.90
17529;DHT22;8882;53.192;8.184;2022-08-19T13:55:11;28.30;99.90
17529;DHT22;8882;53.192;8.184;2022-08-19T13:57:37;28.30;99.90
17529;DHT22;8882;53.192;8.184;2022-08-19T14:00:10;28.20;99.90
17529;DHT22;8882;53.192;8.184;2022-08-19T14:02:37;28.10;99.90
17529;DHT22;8882;53.192;8.184;2022-08-19T14:05:04;27.90;99.90
17529;DHT22;8882;53.192;8.184;2022-08-19T14:07:30;27.80;99.90
17529;DHT22;8882;53.192;8.184;2022-08-19T14:09:56;27.80;99.90
17529;DHT22;8882;53.192;8.184;2022-08-19T14:12:22;27.70;99.90
17529;DHT22;8882;53.192;8.184;2022-08-19T14:14:49;27.70;99.90
17529;DHT22;8882;53.192;8.184;2022-08-19T14:17:15;27.70;99.90
17529;DHT22;8882;53.192;8.184;2022-08-19T14:19:41;27.60;99.90
17529;DHT22;8882;53.192;8.184;2022-08-19T14:22:07;27.60;99.90
17529;DHT22;8882;53.192;8.184;2022-08-19T14:24:33;27.40;99.90
17529;DHT22;8882;53.192;8.184;2022-08-19T14:26:59;27.40;99.90
17529;DHT22;8882;53.192;8.184;2022-08-19T14:29:25;27.40;99.90
17529;DHT22;8882;53.192;8.184;2022-08-19T14:31:50;27.40;99.90
17529;DHT22;8882;53.192;8.184;2022-08-19T14:34:16;27.10;99.90
17529;DHT22;8882;53.192;8.184;2022-08-19T14:36:41;27.10;99.90
17529;DHT22;8882;53.192;8.184;2022-08-19T14:39:08;27.20;99.90
17529;DHT22;8882;53.192;8.184;2022-08-19T14:41:34;27.10;99.90
17529;DHT22;8882;53.192;8.184;2022-08-19T14:44:00;27.10;99.90
17529;DHT22;8882;53.192;8.184;2022-08-19T14:46:27;27.10;99.90
17529;DHT22;8882;53.192;8.184;2022-08-19T14:48:55;26.90;99.90
17529;DHT22;8882;53.192;8.184;2022-08-19T14:51:23;26.80;99.90
17529;DHT22;8882;53.192;8.184;2022-08-19T14:53:49;26.70;99.90
17529;DHT22;8882;53.192;8.184;2022-08-19T14:56:18;26.70;99.90
17529;DHT22;8882;53.192;8.184;2022-08-19T14:58:44;26.80;99.90
17529;DHT22;8882;53.192;8.184;2022-08-19T15:01:11;26.90;99.90
17529;DHT22;8882;53.192;8.184;2022-08-19T15:03:37;26.80;99.90
17529;DHT22;8882;53.192;8.184;2022-08-19T15:06:04;26.80;99.90
17529;DHT22;8882;53.192;8.184;2022-08-19T15:08:32;26.80;99.90
17529;DHT22;8882;53.192;8.184;2022-08-19T15:10:58;26.60;99.90
17529;DHT22;8882;53.192;8.184;2022-08-19T15:13:25;26.60;99.90
17529;DHT22;8882;53.192;8.184;2022-08-19T15:15:52;26.50;99.90
17529;DHT22;8882;53.192;8.184;2022-08-19T15:18:18;26.40;99.90
17529;DHT22;8882;53.192;8.184;2022-08-19T15:20:46;26.30;99.90
17529;DHT22;8882;53.192;8.184;2022-08-19T15:23:13;26.40;99.90
17529;DHT22;8882;53.192;8.184;2022-08-19T15:25:40;26.40;99.90
17529;DHT22;8882;53.192;8.184;2022-08-19T15:28:07;26.30;99.90
17529;DHT22;8882;53.192;8.184;2022-08-19T15:30:32;26.30;99.90
17529;DHT22;8882;53.192;8.184;2022-08-19T15:32:58;26.30;99.90
17529;DHT22;8882;53.192;8.184;2022-08-19T15:35:25;26.20;99.90
17529;DHT22;8882;53.192;8.184;2022-08-19T15:37:52;26.10;99.90
17529;DHT22;8882;53.192;8.184;2022-08-19T15:40:19;26.00;99.90
17529;DHT22;8882;53.192;8.184;2022-08-19T15:42:45;26.00;99.90
17529;DHT22;8882;53.192;8.184;2022-08-19T15:45:13;25.90;99.90
17529;DHT22;8882;53.192;8.184;2022-08-19T15:47:39;25.80;99.90
17529;DHT22;8882;53.192;8.184;2022-08-19T15:50:08;25.80;99.90
17529;DHT22;8882;53.192;8.184;2022-08-19T15:52:35;25.80;99.90
17529;DHT22;8882;53.192;8.184;2022-08-19T15:55:00;25.80;99.90
17529;DHT22;8882;53.192;8.184;2022-08-19T15:57:27;25.80;99.90
17529;DHT22;8882;53.192;8.184;2022-08-19T15:59:53;25.80;99.90
17529;DHT22;8882;53.192;8.184;2022-08-19T16:02:37;25.80;99.90
17529;DHT22;8882;53.192;8.184;2022-08-19T16:05:24;25.80;99.90
17529;DHT22;8882;53.192;8.184;2022-08-19T16:08:08;25.80;99.90
17529;DHT22;8882;53.192;8.184;2022-08-19T16:10:35;25.80;99.90
17529;DHT22;8882;53.192;8.184;2022-08-19T16:13:02;25.80;99.90
17529;DHT22;8882;53.192;8.184;2022-08-19T16:15:29;25.80;99.90
17529;DHT22;8882;53.192;8.184;2022-08-19T16:17:56;25.80;99.90
17529;DHT22;8882;53.192;8.184;2022-08-19T16:20:21;25.80;99.90
17529;DHT22;8882;53.192;8.184;2022-08-19T16:22:49;25.80;99.90
17529;DHT22;8882;53.192;8.184;2022-08-19T16:25:14;25.80;99.90
17529;DHT22;8882;53.192;8.184;2022-08-19T16:27:40;25.80;99.90
17529;DHT22;8882;53.192;8.184;2022-08-19T16:30:07;25.80;99.90
17529;DHT22;8882;53.192;8.184;2022-08-19T16:32:33;25.80;99.90
17529;DHT22;8882;53.192;8.184;2022-08-19T16:34:58;25.70;99.90
17529;DHT22;8882;53.192;8.184;2022-08-19T16:37:24;25.70;99.90
17529;DHT22;8882;53.192;8.184;2022-08-19T16:39:50;25.60;99.90
17529;DHT22;8882;53.192;8.184;2022-08-19T16:42:15;25.50;99.90
17529;DHT22;8882;53.192;8.184;2022-08-19T16:44:43;25.50;99.90
17529;DHT22;8882;53.192;8.184;2022-08-19T16:47:10;25.40;99.90
17529;DHT22;8882;53.192;8.184;2022-08-19T16:49:37;25.30;99.90
17529;DHT22;8882;53.192;8.184;2022-08-19T16:52:03;25.30;99.90
17529;DHT22;8882;53.192;8.184;2022-08-19T16:54:30;25.20;99.90
17529;DHT22;8882;53.192;8.184;2022-08-19T16:56:57;25.10;99.90
17529;DHT22;8882;53.192;8.184;2022-08-19T16:59:22;25.10;99.90
17529;DHT22;8882;53.192;8.184;2022-08-19T17:01:49;25.00;99.90
17529;DHT22;8882;53.192;8.184;2022-08-19T17:04:16;24.90;99.90
17529;DHT22;8882;53.192;8.184;2022-08-19T17:06:42;24.90;99.90
17529;DHT22;8882;53.192;8.184;2022-08-19T17:09:07;24.90;99.90
17529;DHT22;8882;53.192;8.184;2022-08-19T17:11:33;24.90;99.90
17529;DHT22;8882;53.192;8.184;2022-08-19T17:14:00;24.90;99.90
17529;DHT22;8882;53.192;8.184;2022-08-19T17:16:30;24.80;99.90
17529;DHT22;8882;53.192;8.184;2022-08-19T17:18:58;24.70;99.90
17529;DHT22;8882;53.192;8.184;2022-08-19T17:21:27;24.70;99.90
17529;DHT22;8882;53.192;8.184;2022-08-19T17:23:53;24.70;99.90
17529;DHT22;8882;53.192;8.184;2022-08-19T17:26:20;24.60;99.90
17529;DHT22;8882;53.192;8.184;2022-08-19T17:28:47;24.60;99.90
17529;DHT22;8882;53.192;8.184;2022-08-19T17:31:13;24.60;99.90
17529;DHT22;8882;53.192;8.184;2022-08-19T17:33:39;24.50;99.90
17529;DHT22;8882;53.192;8.184;2022-08-19T17:36:05;24.50;99.90
17529;DHT22;8882;53.192;8.184;2022-08-19T17:38:32;24.50;99.90
17529;DHT22;8882;53.192;8.184;2022-08-19T17:41:00;24.50;99.90
17529;DHT22;8882;53.192;8.184;2022-08-19T17:43:31;24.50;99.90
17529;DHT22;8882;53.192;8.184;2022-08-19T17:45:58;24.40;99.90
17529;DHT22;8882;53.192;8.184;2022-08-19T17:48:30;24.40;99.90
17529;DHT22;8882;53.192;8.184;2022-08-19T17:50:56;24.40;99.90
17529;DHT22;8882;53.192;8.184;2022-08-19T17:53:22;24.40;99.90
17529;DHT22;8882;53.192;8.184;2022-08-19T17:55:48;24.30;99.90
17529;DHT22;8882;53.192;8.184;2022-08-19T17:58:13;24.30;99.90
17529;DHT22;8882;53.192;8.184;2022-08-19T18:00:39;24.30;99.90
17529;DHT22;8882;53.192;8.184;2022-08-19T18:03:05;24.30;99.90
17529;DHT22;8882;53.192;8.184;2022-08-19T18:05:41;24.30;99.90
17529;DHT22;8882;53.192;8.184;2022-08-19T18:08:07;24.30;99.90
17529;DHT22;8882;53.192;8.184;2022-08-19T18:10:34;24.20;99.90
17529;DHT22;8882;53.192;8.184;2022-08-19T18:13:00;24.30;99.90
17529;DHT22;8882;53.192;8.184;2022-08-19T18:15:26;24.30;99.90
17529;DHT22;8882;53.192;8.184;2022-08-19T18:17:52;24.30;99.90
17529;DHT22;8882;53.192;8.184;2022-08-19T18:20:18;24.30;99.90
17529;DHT22;8882;53.192;8.184;2022-08-19T18:22:45;24.30;99.90
17529;DHT22;8882;53.192;8.184;2022-08-19T18:25:16;24.20;99.90
17529;DHT22;8882;53.192;8.184;2022-08-19T18:27:52;24.20;99.90
17529;DHT22;8882;53.192;8.184;2022-08-19T18:30:18;24.20;99.90
17529;DHT22;8882;53.192;8.184;2022-08-19T18:32:45;24.20;99.90
17529;DHT22;8882;53.192;8.184;2022-08-19T18:35:16;24.20;99.90
17529;DHT22;8882;53.192;8.184;2022-08-19T18:37:43;24.20;99.90
17529;DHT22;8882;53.192;8.184;2022-08-19T18:40:13;24.20;99.90
17529;DHT22;8882;53.192;8.184;2022-08-19T18:42:57;24.20;99.90
17529;DHT22;8882;53.192;8.184;2022-08-19T18:45:36;24.10;99.90
17529;DHT22;8882;53.192;8.184;2022-08-19T18:48:20;24.10;99.90
17529;DHT22;8882;53.192;8.184;2022-08-19T18:51:05;24.00;99.90
17529;DHT22;8882;53.192;8.184;2022-08-19T18:53:33;23.90;99.90
17529;DHT22;8882;53.192;8.184;2022-08-19T18:56:00;23.90;99.90
17529;DHT22;8882;53.192;8.184;2022-08-19T18:58:29;23.80;99.90
17529;DHT22;8882;53.192;8.184;2022-08-19T19:01:02;23.80;99.90
17529;DHT22;8882;53.192;8.184;2022-08-19T19:03:33;23.70;99.90
17529;DHT22;8882;53.192;8.184;2022-08-19T19:05:58;23.70;99.90
17529;DHT22;8882;53.192;8.184;2022-08-19T19:08:24;23.70;99.90
17529;DHT22;8882;53.192;8.184;2022-08-19T19:10:49;23.70;99.90
17529;DHT22;8882;53.192;8.184;2022-08-19T19:13:15;23.60;99.90
17529;DHT22;8882;53.192;8.184;2022-08-19T19:15:41;23.60;99.90
17529;DHT22;8882;53.192;8.184;2022-08-19T19:18:08;23.50;99.90
17529;DHT22;8882;53.192;8.184;2022-08-19T19:20:34;23.50;99.90
17529;DHT22;8882;53.192;8.184;2022-08-19T19:23:00;23.40;99.90
17529;DHT22;8882;53.192;8.184;2022-08-19T19:25:25;23.40;99.90
17529;DHT22;8882;53.192;8.184;2022-08-19T19:27:52;23.40;99.90
17529;DHT22;8882;53.192;8.184;2022-08-19T19:30:19;23.40;99.90
17529;DHT22;8882;53.192;8.184;2022-08-19T19:32:49;23.30;99.90
17529;DHT22;8882;53.192;8.184;2022-08-19T19:35:15;23.20;99.90
17529;DHT22;8882;53.192;8.184;2022-08-19T19:37:40;23.20;99.90
17529;DHT22;8882;53.192;8.184;2022-08-19T19:40:08;23.10;99.90
17529;DHT22;8882;53.192;8.184;2022-08-19T19:42:34;23.00;99.90
17529;DHT22;8882;53.192;8.184;2022-08-19T19:45:00;23.00;99.90
17529;DHT22;8882;53.192;8.184;2022-08-19T19:47:27;23.00;99.90
17529;DHT22;8882;53.192;8.184;2022-08-19T19:49:55;22.90;99.90
17529;DHT22;8882;53.192;8.184;2022-08-19T19:52:21;22.90;99.90
17529;DHT22;8882;53.192;8.184;2022-08-19T19:54:47;22.90;99.90
17529;DHT22;8882;53.192;8.184;2022-08-19T19:57:13;22.80;99.90
17529;DHT22;8882;53.192;8.184;2022-08-19T19:59:40;22.80;99.90
17529;DHT22;8882;53.192;8.184;2022-08-19T20:02:06;22.80;99.90
17529;DHT22;8882;53.192;8.184;2022-08-19T20:04:32;22.70;99.90
17529;DHT22;8882;53.192;8.184;2022-08-19T20:06:58;22.70;99.90
17529;DHT22;8882;53.192;8.184;2022-08-19T20:09:23;22.60;99.90
17529;DHT22;8882;53.192;8.184;2022-08-19T20:11:54;22.60;99.90
17529;DHT22;8882;53.192;8.184;2022-08-19T20:14:29;22.50;99.90
17529;DHT22;8882;53.192;8.184;2022-08-19T20:17:00;22.50;99.90
17529;DHT22;8882;53.192;8.184;2022-08-19T20:19:31;22.40;99.90
17529;DHT22;8882;53.192;8.184;2022-08-19T20:21:57;22.40;99.90
17529;DHT22;8882;53.192;8.184;2022-08-19T20:24:30;22.40;99.90